createdAt,value
2023-03-01T00:00:55.919Z,99.90
2023-03-01T00:03:23.000Z,99.90
2023-03-01T00:05:50.036Z,99.90
2023-03-01T00:08:16.905Z,99.90
2023-03-01T00:10:44.161Z,99.90
2023-03-01T00:13:11.563Z,99.90
2023-03-01T00:15:41.330Z,99.90
2023-03-01T00:18:09.298Z,99.90
2023-03-01T00:20:36.670Z,99.90
2023-03-01T00:23:03.773Z,99.90
2023-03-01T00:25:30.710Z,99.90
2023-03-01T00:27:57.814Z,99.90
2023-03-01T00:30:24.696Z,99.90
2023-03-01T00:32:51.851Z,99.90
2023-03-01T00:35:18.657Z,99.90
2023-03-01T00:37:45.871Z,99.90
2023-03-01T00:40:13.132Z,99.90
2023-03-01T00:42:39.956Z,99.90
2023-03-01T00:45:08.842Z,99.90
2023-03-01T00:47:35.763Z,99.90
2023-03-01T00:50:02.696Z,99.90
2023-03-01T00:52:29.524Z,99.90
2023-03-01T00:54:56.460Z,99.90
2023-03-01T00:57:23.492Z,99.90
2023-03-01T00:59:50.526Z,99.90
2023-03-01T01:02:17.499Z,99.90
2023-03-01T01:04:44.335Z,99.90
2023-03-01T01:07:11.339Z,99.90
2023-03-01T01:09:38.922Z,99.90
2023-03-01T01:12:06.274Z,99.90
2023-03-01T01:14:33.210Z,99.90
2023-03-01T01:17:00.071Z,99.90
2023-03-01T01:19:27.924Z,99.90
2023-03-01T01:21:54.741Z,99.90
2023-03-01T01:24:21.560Z,99.90
2023-03-01T01:26:48.648Z,99.90
2023-03-01T01:29:15.865Z,99.90
2023-03-01T01:31:43.925Z,99.90
2023-03-01T01:34:17.776Z,99.90
2023-03-01T01:36:45.124Z,99.90
2023-03-01T01:39:14.225Z,99.90
2023-03-01T01:41:43.795Z,99.90
2023-03-01T01:44:11.660Z,99.90
2023-03-01T01:46:42.502Z,99.90
2023-03-01T01:49:19.279Z,99.90
2023-03-01T01:51:49.268Z,99.90
2023-03-01T01:54:22.208Z,99.90
2023-03-01T01:56:54.450Z,99.90
2023-03-01T01:59:25.688Z,99.90
2023-03-01T02:01:54.269Z,99.90
2023-03-01T02:04:22.171Z,99.90
2023-03-01T02:06:57.991Z,99.90
2023-03-01T02:09:27.797Z,99.90
2023-03-01T02:11:55.535Z,99.90
2023-03-01T02:14:22.867Z,99.90
2023-03-01T02:16:50.340Z,99.90
2023-03-01T02:19:32.209Z,99.90
2023-03-01T02:22:02.233Z,99.90
2023-03-01T02:24:37.219Z,99.90
2023-03-01T02:27:04.584Z,99.90
2023-03-01T02:29:31.570Z,99.90
2023-03-01T02:32:02.729Z,99.90
2023-03-01T02:34:31.415Z,99.90
2023-03-01T02:37:02.610Z,99.90
2023-03-01T02:39:38.234Z,99.90
2023-03-01T02:42:07.184Z,99.90
2023-03-01T02:44:34.583Z,99.90
2023-03-01T02:47:04.748Z,99.90
2023-03-01T02:49:35.659Z,99.90
2023-03-01T02:52:25.599Z,99.90
2023-03-01T02:55:03.352Z,99.90
2023-03-01T02:57:32.334Z,99.90
2023-03-01T03:00:08.327Z,99.90
2023-03-01T03:02:37.610Z,99.90
2023-03-01T03:05:09.461Z,99.90
2023-03-01T03:07:38.181Z,99.90
2023-03-01T03:10:07.468Z,99.90
2023-03-01T03:12:34.230Z,99.90
2023-03-01T03:15:01.287Z,99.90
2023-03-01T03:17:28.196Z,99.90
2023-03-01T03:19:55.135Z,99.90
2023-03-01T03:22:21.965Z,99.90
2023-03-01T03:24:48.751Z,99.90
2023-03-01T03:27:15.566Z,99.90
2023-03-01T03:29:42.314Z,99.90
2023-03-01T03:32:09.302Z,99.90
2023-03-01T03:34:36.041Z,99.90
2023-03-01T03:37:02.833Z,99.90
2023-03-01T03:39:29.948Z,99.90
2023-03-01T03:41:56.721Z,99.90
2023-03-01T03:44:23.479Z,99.90
2023-03-01T03:46:50.196Z,99.90
2023-03-01T03:49:16.898Z,99.90
2023-03-01T03:51:46.010Z,99.90
2023-03-01T03:54:12.810Z,99.90
2023-03-01T03:56:40.107Z,99.90
2023-03-01T03:59:07.756Z,99.90
2023-03-01T05:02:10.212Z,99.90
2023-03-01T05:04:37.061Z,99.90
2023-03-01T05:07:04.295Z,99.90
2023-03-01T05:09:31.071Z,99.90
2023-03-01T05:11:58.001Z,99.90
2023-03-01T05:14:24.799Z,99.90
2023-03-01T05:16:51.703Z,99.90
2023-03-01T05:19:23.662Z,99.90
2023-03-01T05:22:08.557Z,99.90
2023-03-01T05:24:36.125Z,99.90
2023-03-01T05:27:04.017Z,99.90
2023-03-01T05:29:32.476Z,99.90
2023-03-01T05:32:01.902Z,99.90
2023-03-01T05:34:32.589Z,99.90
2023-03-01T05:36:59.934Z,99.90
2023-03-01T05:39:28.724Z,99.90
2023-03-01T05:41:59.438Z,99.90
2023-03-01T05:44:27.144Z,99.90
2023-03-01T05:46:54.047Z,99.90
2023-03-01T05:49:21.395Z,99.90
2023-03-01T05:51:53.375Z,99.90
2023-03-01T05:54:21.761Z,99.90
2023-03-01T05:56:48.752Z,99.90
2023-03-01T05:59:17.369Z,99.90
2023-03-01T06:01:44.582Z,99.90
2023-03-01T06:04:11.590Z,99.90
2023-03-01T06:06:38.606Z,99.90
2023-03-01T06:09:08.467Z,99.90
2023-03-01T06:11:39.099Z,99.90
2023-03-01T06:14:08.788Z,99.90
2023-03-01T06:16:35.641Z,99.90
2023-03-01T06:19:02.502Z,99.90
2023-03-01T06:21:29.384Z,99.90
2023-03-01T06:23:56.185Z,99.90
2023-03-01T06:26:23.111Z,99.90
2023-03-01T06:28:50.047Z,99.90
2023-03-01T06:31:17.107Z,99.90
2023-03-01T06:33:45.668Z,99.90
2023-03-01T06:36:12.556Z,99.90
2023-03-01T06:38:41.706Z,99.90
2023-03-01T06:41:08.709Z,99.90
2023-03-01T06:43:35.867Z,99.90
2023-03-01T06:46:06.374Z,99.90
2023-03-01T06:48:33.975Z,99.90
2023-03-01T06:51:01.903Z,99.90
2023-03-01T06:53:30.216Z,99.90
2023-03-01T06:55:58.404Z,99.90
2023-03-01T06:58:25.549Z,99.90
2023-03-01T07:00:52.694Z,99.90
2023-03-01T07:03:19.546Z,99.90
2023-03-01T07:05:56.460Z,99.90
2023-03-01T07:08:24.634Z,99.90
2023-03-01T07:10:57.189Z,99.90
2023-03-01T07:13:24.149Z,99.90
2023-03-01T07:15:51.316Z,99.90
2023-03-01T07:18:18.515Z,99.90
2023-03-01T07:20:45.814Z,99.90
2023-03-01T07:23:12.898Z,99.90
2023-03-01T07:25:39.813Z,99.90
2023-03-01T07:28:06.894Z,99.90
2023-03-01T07:30:33.845Z,99.90
2023-03-01T07:33:01.221Z,99.90
2023-03-01T07:35:29.146Z,99.90
2023-03-01T07:37:56.327Z,99.90
2023-03-01T07:40:23.848Z,99.90
2023-03-01T07:42:55.892Z,99.90
2023-03-01T07:45:23.451Z,99.90
2023-03-01T07:47:52.569Z,99.90
2023-03-01T07:50:21.066Z,99.90
2023-03-01T07:52:49.530Z,99.90
2023-03-01T07:55:17.587Z,99.90
2023-03-01T07:57:44.954Z,99.90
2023-03-01T08:00:13.862Z,99.90
2023-03-01T08:02:43.017Z,99.90
2023-03-01T08:05:14.299Z,99.90
2023-03-01T08:07:41.616Z,99.90
2023-03-01T08:10:09.509Z,99.90
2023-03-01T08:12:36.589Z,99.90
2023-03-01T08:15:04.223Z,99.90
2023-03-01T08:17:31.320Z,99.90
2023-03-01T08:19:58.716Z,99.00
2023-03-01T08:22:26.020Z,99.00
2023-03-01T08:24:53.341Z,98.80
2023-03-01T08:27:25.739Z,98.80
2023-03-01T08:29:53.591Z,97.00
2023-03-01T08:32:22.495Z,96.90
2023-03-01T08:34:50.949Z,99.60
2023-03-01T08:37:18.729Z,98.40
2023-03-01T08:39:46.040Z,97.90
2023-03-01T08:42:13.451Z,98.00
2023-03-01T08:44:42.196Z,99.10
2023-03-01T08:47:09.483Z,97.50
2023-03-01T08:49:37.372Z,97.40
2023-03-01T08:52:04.926Z,96.20
2023-03-01T08:54:32.576Z,96.10
2023-03-01T08:57:02.370Z,96.20
2023-03-01T08:59:31.275Z,95.70
2023-03-01T09:01:58.716Z,95.70
2023-03-01T09:04:26.182Z,95.50
2023-03-01T09:06:53.853Z,95.00
2023-03-01T09:09:20.954Z,93.90
2023-03-01T09:11:48.348Z,93.00
2023-03-01T09:14:15.842Z,93.20
2023-03-01T09:16:43.643Z,91.50
2023-03-01T09:19:11.246Z,92.30
2023-03-01T09:21:41.284Z,90.80
2023-03-01T09:24:16.902Z,90.70
2023-03-01T09:26:44.296Z,88.50
2023-03-01T09:29:11.402Z,86.30
2023-03-01T09:31:38.777Z,85.50
2023-03-01T09:34:06.522Z,85.70
2023-03-01T09:36:34.585Z,85.50
2023-03-01T09:39:02.170Z,85.20
2023-03-01T09:42:03.786Z,85.30
2023-03-01T09:44:42.388Z,85.90
2023-03-01T09:47:18.348Z,85.40
2023-03-01T09:49:50.661Z,84.90
2023-03-01T09:52:30.827Z,85.40
2023-03-01T09:55:00.728Z,85.50
2023-03-01T09:57:37.451Z,84.40
2023-03-01T10:00:22.193Z,84.20
2023-03-01T10:02:54.167Z,82.10
2023-03-01T10:05:38.395Z,81.40
2023-03-01T10:08:28.594Z,83.70
2023-03-01T10:10:56.880Z,85.00
2023-03-01T10:13:45.800Z,82.80
2023-03-01T10:16:19.203Z,83.40
2023-03-01T10:18:53.574Z,82.50
2023-03-01T10:21:21.763Z,82.90
2023-03-01T10:23:53.737Z,82.40
2023-03-01T10:26:37.351Z,82.80
2023-03-01T10:29:04.716Z,84.00
2023-03-01T10:31:40.730Z,81.90
2023-03-01T10:34:15.391Z,84.20
2023-03-01T10:36:44.824Z,84.20
2023-03-01T10:39:18.291Z,84.40
2023-03-01T10:41:57.121Z,85.00
2023-03-01T10:44:46.067Z,84.40
2023-03-01T10:47:26.746Z,82.90
2023-03-01T10:50:05.056Z,83.40
2023-03-01T10:52:38.060Z,84.20
2023-03-01T10:55:25.401Z,83.40
2023-03-01T10:58:09.608Z,84.20
2023-03-01T11:00:53.994Z,84.90
2023-03-01T11:03:27.180Z,82.30
2023-03-01T11:05:54.513Z,81.60
2023-03-01T11:08:39.191Z,81.90
2023-03-01T11:11:16.610Z,79.90
2023-03-01T11:14:01.090Z,79.90
2023-03-01T11:16:31.928Z,79.80
2023-03-01T11:19:14.167Z,78.70
2023-03-01T11:21:50.269Z,78.80
2023-03-01T11:24:20.777Z,78.90
2023-03-01T11:26:55.260Z,81.40
2023-03-01T11:29:47.723Z,82.10
2023-03-01T11:32:17.502Z,80.50
2023-03-01T11:34:55.756Z,81.90
2023-03-01T11:37:43.620Z,80.40
2023-03-01T11:40:27.501Z,82.00
2023-03-01T11:43:12.134Z,80.90
2023-03-01T11:45:54.422Z,82.20
2023-03-01T11:48:48.835Z,81.20
2023-03-01T11:51:37.500Z,81.60
2023-03-01T11:54:27.876Z,80.70
2023-03-01T11:57:12.805Z,78.00
2023-03-01T11:59:56.242Z,78.30
2023-03-01T12:02:44.136Z,79.30
2023-03-01T12:05:26.152Z,78.70
2023-03-01T12:08:02.355Z,79.00
2023-03-01T12:10:38.891Z,79.90
2023-03-01T12:13:18.650Z,79.60
2023-03-01T12:15:59.413Z,80.40
2023-03-01T12:18:35.056Z,78.80
2023-03-01T12:21:37.677Z,78.20
2023-03-01T12:24:28.818Z,80.90
2023-03-01T12:27:41.707Z,78.60
2023-03-01T12:30:31.934Z,76.90
2023-03-01T12:33:08.055Z,78.60
2023-03-01T12:36:06.337Z,78.90
2023-03-01T12:38:43.420Z,76.30
2023-03-01T12:41:46.931Z,77.10
2023-03-01T12:44:23.795Z,77.30
2023-03-01T12:47:00.038Z,73.60
2023-03-01T12:49:32.849Z,74.60
2023-03-01T12:52:11.135Z,74.70
2023-03-01T12:54:38.514Z,73.20
2023-03-01T12:57:38.236Z,73.60
2023-03-01T13:00:24.022Z,72.80
2023-03-01T13:03:02.135Z,74.10
2023-03-01T13:06:04.336Z,73.10
2023-03-01T13:08:50.893Z,72.90
2023-03-01T13:11:22.060Z,69.80
2023-03-01T13:13:50.194Z,70.30
2023-03-01T13:16:30.542Z,69.80
2023-03-01T13:19:16.711Z,69.70
2023-03-01T13:21:46.151Z,69.80
2023-03-01T13:24:29.430Z,68.60
2023-03-01T13:27:20.189Z,70.70
2023-03-01T13:29:49.289Z,69.40
2023-03-01T13:32:43.506Z,69.00
2023-03-01T13:35:19.346Z,69.60
2023-03-01T13:37:47.366Z,70.40
2023-03-01T13:40:19.601Z,70.40
2023-03-01T13:43:04.284Z,68.80
2023-03-01T13:45:39.364Z,68.40
2023-03-01T13:48:11.009Z,67.70
2023-03-01T13:50:47.953Z,67.80
2023-03-01T13:53:20.520Z,67.60
2023-03-01T13:55:52.077Z,68.70
2023-03-01T13:58:30.376Z,68.20
2023-03-01T14:00:59.991Z,68.50
2023-03-01T14:03:28.448Z,69.30
2023-03-01T14:06:16.690Z,70.40
2023-03-01T14:08:45.835Z,69.00
2023-03-01T14:11:16.057Z,68.50
2023-03-01T14:13:58.003Z,67.90
2023-03-01T14:16:47.666Z,68.50
2023-03-01T14:19:30.973Z,68.50
2023-03-01T14:22:07.804Z,70.10
2023-03-01T14:24:39.538Z,68.80
2023-03-01T14:27:13.749Z,68.80
2023-03-01T14:29:41.943Z,68.10
2023-03-01T14:32:21.380Z,68.60
2023-03-01T14:34:51.820Z,69.20
2023-03-01T14:37:26.234Z,70.90
2023-03-01T14:39:55.735Z,72.20
2023-03-01T14:42:27.667Z,69.90
2023-03-01T14:44:57.545Z,70.50
2023-03-01T14:47:30.917Z,71.50
2023-03-01T14:50:02.830Z,70.40
2023-03-01T14:52:38.735Z,71.50
2023-03-01T14:55:15.025Z,71.20
2023-03-01T14:57:46.654Z,71.30
2023-03-01T15:00:25.534Z,72.50
2023-03-01T15:02:56.395Z,71.50
2023-03-01T15:05:40.268Z,72.40
2023-03-01T15:08:08.901Z,72.20
2023-03-01T15:10:37.891Z,71.80
2023-03-01T15:13:14.244Z,73.30
2023-03-01T15:15:47.695Z,74.60
2023-03-01T15:18:18.378Z,74.50
2023-03-01T15:20:45.774Z,75.00
2023-03-01T15:25:58.191Z,75.30
2023-03-01T15:28:31.052Z,77.30
2023-03-01T15:31:05.285Z,78.70
2023-03-01T15:33:39.095Z,80.10
2023-03-01T15:36:39.628Z,79.60
2023-03-01T15:39:27.434Z,79.40
2023-03-01T15:41:56.816Z,80.40
2023-03-01T15:44:43.440Z,81.20
2023-03-01T15:47:28.715Z,81.50
2023-03-01T15:49:57.457Z,83.10
2023-03-01T15:52:42.830Z,84.20
2023-03-01T15:55:20.590Z,85.50
2023-03-01T15:57:48.441Z,85.90
2023-03-01T16:00:16.605Z,86.00
2023-03-01T16:02:45.009Z,86.80
2023-03-01T16:05:34.060Z,87.20
2023-03-01T16:08:03.015Z,88.00
2023-03-01T16:10:32.212Z,87.30
2023-03-01T16:13:01.042Z,88.90
2023-03-01T16:15:33.243Z,89.70
2023-03-01T16:18:01.977Z,89.90
2023-03-01T16:20:33.773Z,90.00
2023-03-01T16:23:04.895Z,90.10
2023-03-01T16:25:35.107Z,90.60
2023-03-01T16:28:06.468Z,90.90
2023-03-01T16:30:37.095Z,91.20
2023-03-01T16:33:23.011Z,91.40
2023-03-01T16:35:56.525Z,92.00
2023-03-01T16:38:29.859Z,92.20
2023-03-01T16:40:57.100Z,92.40
2023-03-01T16:43:24.549Z,92.60
2023-03-01T16:45:53.059Z,92.80
2023-03-01T16:48:20.848Z,93.10
2023-03-01T16:51:01.303Z,93.50
2023-03-01T16:53:33.410Z,93.70
2023-03-01T16:56:00.469Z,94.00
2023-03-01T16:58:29.717Z,94.10
2023-03-01T17:00:57.946Z,94.50
2023-03-01T17:03:27.864Z,94.80
2023-03-01T17:05:55.818Z,94.60
2023-03-01T17:08:23.153Z,95.30
2023-03-01T17:10:50.323Z,95.70
2023-03-01T17:13:17.303Z,95.90
2023-03-01T17:15:44.993Z,96.00
2023-03-01T17:18:13.259Z,96.20
2023-03-01T17:20:43.822Z,96.40
2023-03-01T17:23:11.883Z,96.60
2023-03-01T17:25:45.716Z,96.80
2023-03-01T17:28:14.778Z,97.00
2023-03-01T17:30:45.178Z,97.30
2023-03-01T17:33:13.020Z,97.60
2023-03-01T17:35:40.703Z,98.00
2023-03-01T17:38:08.489Z,98.10
2023-03-01T17:40:36.159Z,98.30
2023-03-01T17:43:04.424Z,98.70
2023-03-01T17:45:32.086Z,98.80
2023-03-01T17:47:59.256Z,98.90
2023-03-01T17:50:26.553Z,99.10
2023-03-01T17:52:53.752Z,99.50
2023-03-01T17:55:21.358Z,99.50
2023-03-01T17:57:48.702Z,99.80
2023-03-01T18:00:17.928Z,99.90
2023-03-01T18:02:45.489Z,99.90
2023-03-01T18:05:12.419Z,99.90
2023-03-01T18:07:39.407Z,99.90
2023-03-01T18:10:06.659Z,99.90
2023-03-01T18:12:34.777Z,99.90
2023-03-01T18:15:01.876Z,99.90
2023-03-01T18:17:30.298Z,99.90
2023-03-01T18:19:58.251Z,99.90
2023-03-01T18:22:27.004Z,99.90
2023-03-01T18:24:54.254Z,99.90
2023-03-01T18:27:21.416Z,99.90
2023-03-01T18:29:49.116Z,99.90
2023-03-01T18:49:21.779Z,99.90
2023-03-01T18:51:50.884Z,99.90
2023-03-01T18:54:18.793Z,99.90
2023-03-01T18:56:46.839Z,99.90
2023-03-01T18:59:15.814Z,99.90
2023-03-01T19:01:44.072Z,99.90
2023-03-01T19:04:12.891Z,99.90
2023-03-01T19:06:40.309Z,99.90
2023-03-01T19:09:12.862Z,99.90
2023-03-01T19:11:43.484Z,99.90
2023-03-01T19:14:15.076Z,99.90
2023-03-01T19:16:43.890Z,99.90
2023-03-01T19:19:12.360Z,99.90
2023-03-01T19:21:42.348Z,99.90
2023-03-01T19:24:12.125Z,99.90
2023-03-01T19:26:43.474Z,99.90
2023-03-01T19:29:14.990Z,99.90
2023-03-01T19:31:42.116Z,99.90
2023-03-01T19:34:11.805Z,99.90
2023-03-01T19:36:42.820Z,99.90
2023-03-01T19:39:14.272Z,99.90
2023-03-01T19:41:42.260Z,99.90
2023-03-01T19:44:09.877Z,99.90
2023-03-01T19:46:37.153Z,99.90
2023-03-01T19:49:05.436Z,99.90
2023-03-01T19:51:36.272Z,99.90
2023-03-01T19:54:05.990Z,99.90
2023-03-01T19:56:34.325Z,99.90
2023-03-01T19:59:05.349Z,99.90
2023-03-01T20:01:34.870Z,99.90
2023-03-01T20:04:03.120Z,99.90
2023-03-01T20:06:31.216Z,99.90
2023-03-01T20:09:04.209Z,99.90
2023-03-01T20:11:39.048Z,99.90
2023-03-01T20:14:07.011Z,99.90
2023-03-01T20:16:36.892Z,99.90
2023-03-01T20:19:04.714Z,99.90
2023-03-01T20:21:33.770Z,99.90
2023-03-01T20:24:01.131Z,99.90
2023-03-01T20:26:29.794Z,99.90
2023-03-01T20:28:57.883Z,99.90
2023-03-01T20:31:29.837Z,99.90
2023-03-01T20:33:59.178Z,99.90
2023-03-01T20:36:28.447Z,99.90
2023-03-01T20:38:59.655Z,99.90
2023-03-01T20:41:27.146Z,99.90
2023-03-01T20:43:56.514Z,99.90
2023-03-01T20:46:26.677Z,99.90
2023-03-01T20:48:54.739Z,99.90
2023-03-01T20:51:22.223Z,99.90
2023-03-01T20:53:50.276Z,99.90
2023-03-01T20:56:20.140Z,99.90
2023-03-01T20:58:48.182Z,99.90
2023-03-01T21:01:20.595Z,99.90
2023-03-01T21:03:49.816Z,99.90
2023-03-01T21:06:22.006Z,99.90
2023-03-01T21:08:50.355Z,99.90
2023-03-01T21:11:24.157Z,99.90
2023-03-01T21:13:55.475Z,99.90
2023-03-01T21:16:23.418Z,99.90
2023-03-01T21:18:52.207Z,99.90
2023-03-01T21:21:27.180Z,99.90
2023-03-01T21:23:55.282Z,99.90
2023-03-01T21:26:26.172Z,99.90
2023-03-01T21:28:59.580Z,99.90
2023-03-01T21:31:36.120Z,99.90
2023-03-01T21:34:06.991Z,99.90
2023-03-01T21:36:36.223Z,99.90
2023-03-01T21:39:05.924Z,99.90
2023-03-01T21:41:36.930Z,99.90
2023-03-01T21:44:06.935Z,99.90
2023-03-01T21:46:37.737Z,99.90
2023-03-01T21:49:08.307Z,99.90
2023-03-01T21:51:36.574Z,99.90
2023-03-01T21:54:03.920Z,99.90
2023-03-01T21:56:39.654Z,99.90
2023-03-01T21:59:10.878Z,99.90
2023-03-01T22:01:38.538Z,99.90
2023-03-01T22:04:05.986Z,99.90
2023-03-01T22:06:41.182Z,99.90
2023-03-01T22:09:24.311Z,99.90
2023-03-01T22:11:55.097Z,99.90
2023-03-01T22:14:23.046Z,99.90
2023-03-01T22:16:51.844Z,99.90
2023-03-01T22:19:19.434Z,99.90
2023-03-01T22:21:49.927Z,99.90
2023-03-01T22:24:20.948Z,99.90
2023-03-01T22:26:49.757Z,99.90
2023-03-01T22:29:21.159Z,99.90
2023-03-01T22:31:48.523Z,99.90
2023-03-01T22:34:17.393Z,99.90
2023-03-01T22:36:45.851Z,99.90
2023-03-01T22:39:15.138Z,99.90
2023-03-01T22:41:46.069Z,99.90
2023-03-01T22:44:15.198Z,99.90
2023-03-01T22:46:45.111Z,99.90
2023-03-01T22:49:12.832Z,99.90
2023-03-01T22:51:42.526Z,99.90
2023-03-01T22:54:12.188Z,99.90
2023-03-01T22:56:41.003Z,99.90
2023-03-01T22:59:11.899Z,99.90
2023-03-01T23:01:41.493Z,99.90
2023-03-01T23:04:09.058Z,99.90
2023-03-01T23:06:50.858Z,99.90
2023-03-01T23:09:25.445Z,99.90
2023-03-01T23:11:53.408Z,99.90
2023-03-01T23:14:21.241Z,99.90
2023-03-01T23:16:49.602Z,99.90
2023-03-01T23:19:16.564Z,99.90
2023-03-01T23:21:48.855Z,99.90
2023-03-01T23:24:19.913Z,99.90
2023-03-01T23:26:50.760Z,99.90
2023-03-01T23:29:17.685Z,99.90
2023-03-01T23:31:44.728Z,99.90
2023-03-01T23:34:11.714Z,99.90
2023-03-01T23:36:45.387Z,99.90
2023-03-01T23:39:14.575Z,99.90
2023-03-01T23:41:42.180Z,99.90
2023-03-01T23:44:14.385Z,99.90
2023-03-01T23:46:43.625Z,99.90
2023-03-01T23:49:12.859Z,99.90
2023-03-01T23:51:45.573Z,99.90
2023-03-01T23:54:15.608Z,99.90
2023-03-01T23:56:44.612Z,99.90
2023-03-01T23:59:15.095Z,99.90
